createdAt,value
2018-06-27T00:01:20.445Z,5.77
2018-06-27T00:03:52.591Z,5.57
2018-06-27T00:06:24.762Z,5.70
2018-06-27T00:08:56.895Z,6.33
2018-06-27T00:11:28.983Z,5.60
2018-06-27T00:14:01.032Z,5.30
2018-06-27T00:16:33.155Z,7.10
2018-06-27T00:19:05.284Z,6.00
2018-06-27T00:21:37.382Z,6.10
2018-06-27T00:24:09.440Z,6.33
2018-06-27T00:26:41.528Z,6.10
2018-06-27T00:29:13.578Z,6.60
2018-06-27T00:31:45.659Z,5.80
2018-06-27T00:34:17.948Z,5.80
2018-06-27T00:36:50.003Z,6.00
2018-06-27T00:39:23.114Z,5.90
2018-06-27T00:41:55.264Z,5.87
2018-06-27T00:44:27.307Z,5.37
2018-06-27T00:46:59.509Z,5.50
2018-06-27T00:49:31.541Z,5.57
2018-06-27T00:52:03.618Z,5.13
2018-06-27T00:54:35.680Z,5.10
2018-06-27T00:57:07.815Z,6.73
2018-06-27T00:59:39.885Z,4.70
2018-06-27T01:02:12.005Z,4.80
2018-06-27T01:04:44.095Z,6.33
2018-06-27T01:07:16.178Z,5.10
2018-06-27T01:09:48.240Z,4.73
2018-06-27T01:12:20.300Z,5.40
2018-06-27T01:14:52.337Z,5.80
2018-06-27T01:17:24.435Z,6.00
2018-06-27T01:19:56.585Z,4.30
2018-06-27T01:22:28.657Z,4.90
2018-06-27T01:25:00.727Z,4.43
2018-06-27T01:27:32.795Z,6.03
2018-06-27T01:30:05.015Z,7.87
2018-06-27T01:32:37.103Z,5.70
2018-06-27T01:35:09.203Z,5.70
2018-06-27T01:37:41.283Z,5.00
2018-06-27T01:40:13.644Z,5.37
2018-06-27T01:42:45.697Z,5.47
2018-06-27T01:45:17.789Z,5.47
2018-06-27T01:47:49.837Z,6.17
2018-06-27T01:50:22.759Z,6.63
2018-06-27T01:52:54.815Z,5.07
2018-06-27T01:55:26.887Z,4.50
2018-06-27T01:57:58.992Z,4.70
2018-06-27T02:00:31.069Z,5.70
2018-06-27T02:03:03.202Z,5.00
2018-06-27T02:05:35.307Z,8.70
2018-06-27T02:08:07.406Z,6.80
2018-06-27T02:10:39.485Z,7.17
2018-06-27T02:13:11.570Z,5.60
2018-06-27T02:15:43.623Z,5.33
2018-06-27T02:18:15.833Z,5.23
2018-06-27T02:20:47.888Z,4.90
2018-06-27T02:23:19.979Z,5.10
2018-06-27T02:25:52.080Z,5.20
2018-06-27T02:28:24.166Z,5.03
2018-06-27T02:30:56.256Z,5.58
2018-06-27T02:33:29.234Z,5.15
2018-06-27T02:36:01.413Z,6.30
2018-06-27T02:38:33.679Z,5.42
2018-06-27T02:41:05.808Z,5.12
2018-06-27T02:43:38.999Z,5.90
2018-06-27T02:46:11.074Z,6.58
2018-06-27T02:48:43.211Z,6.17
2018-06-27T02:51:15.296Z,5.40
2018-06-27T02:53:47.371Z,5.90
2018-06-27T02:56:19.470Z,4.97
2018-06-27T02:58:51.543Z,6.73
2018-06-27T03:01:23.669Z,5.87
2018-06-27T03:03:55.765Z,5.90
2018-06-27T03:06:27.892Z,6.10
2018-06-27T03:09:00.033Z,5.72
2018-06-27T03:11:32.094Z,7.40
2018-06-27T03:14:04.238Z,5.72
2018-06-27T03:16:36.288Z,6.10
2018-06-27T03:19:08.366Z,5.30
2018-06-27T03:21:40.447Z,6.47
2018-06-27T03:24:12.556Z,6.20
2018-06-27T03:26:44.635Z,5.10
2018-06-27T03:29:17.603Z,5.83
2018-06-27T03:31:49.671Z,6.10
2018-06-27T03:34:21.794Z,5.80
2018-06-27T03:36:53.850Z,5.57
2018-06-27T03:39:25.931Z,5.20
2018-06-27T03:41:57.995Z,6.13
2018-06-27T03:44:30.108Z,5.20
2018-06-27T03:47:02.375Z,5.92
2018-06-27T03:49:34.413Z,5.43
2018-06-27T03:52:06.665Z,5.73
2018-06-27T03:54:38.785Z,6.10
2018-06-27T03:57:10.870Z,5.10
2018-06-27T03:59:42.945Z,5.40
2018-06-27T04:02:14.996Z,5.37
2018-06-27T04:04:47.073Z,5.80
2018-06-27T04:07:19.152Z,5.97
2018-06-27T04:09:51.213Z,5.33
2018-06-27T04:12:23.260Z,6.63
2018-06-27T04:14:55.298Z,6.47
2018-06-27T04:17:27.378Z,6.03
2018-06-27T04:19:59.466Z,5.50
2018-06-27T04:22:33.971Z,6.00
2018-06-27T04:25:06.057Z,6.00
2018-06-27T04:27:38.101Z,5.13
2018-06-27T04:30:10.189Z,5.50
2018-06-27T04:32:42.236Z,5.63
2018-06-27T04:35:14.325Z,5.63
2018-06-27T04:37:46.608Z,5.97
2018-06-27T04:40:18.740Z,5.67
2018-06-27T04:42:50.791Z,6.20
2018-06-27T04:45:22.866Z,5.87
2018-06-27T04:47:54.903Z,4.57
2018-06-27T04:50:27.001Z,4.80
2018-06-27T04:52:59.092Z,4.97
2018-06-27T04:55:31.381Z,4.73
2018-06-27T04:58:03.464Z,5.53
2018-06-27T05:00:35.577Z,4.27
2018-06-27T05:03:07.653Z,5.73
2018-06-27T05:05:39.789Z,6.30
2018-06-27T05:08:11.844Z,5.23
2018-06-27T05:10:43.951Z,4.70
2018-06-27T05:13:16.034Z,4.63
2018-06-27T05:15:48.132Z,5.07
2018-06-27T05:18:20.157Z,4.83
2018-06-27T05:20:52.279Z,5.57
2018-06-27T05:23:24.366Z,5.00
2018-06-27T05:25:56.450Z,6.00
2018-06-27T05:28:28.573Z,5.40
2018-06-27T05:31:00.640Z,4.93
2018-06-27T05:33:32.725Z,4.80
2018-06-27T05:36:04.899Z,4.97
2018-06-27T05:38:36.964Z,7.20
2018-06-27T05:41:09.110Z,4.90
2018-06-27T05:43:41.189Z,5.40
2018-06-27T05:46:13.299Z,4.90
2018-06-27T05:48:45.384Z,5.13
2018-06-27T05:51:17.737Z,4.90
2018-06-27T05:53:49.892Z,5.57
2018-06-27T05:56:21.948Z,5.23
2018-06-27T05:58:55.026Z,4.77
2018-06-27T06:01:27.260Z,5.60
2018-06-27T06:03:59.380Z,4.83
2018-06-27T06:06:31.596Z,5.50
2018-06-27T06:09:07.799Z,6.97
2018-06-27T06:11:39.948Z,5.40
2018-06-27T06:14:12.031Z,4.73
2018-06-27T06:16:44.125Z,5.40
2018-06-27T06:19:16.181Z,5.10
2018-06-27T06:21:48.274Z,7.10
2018-06-27T06:24:20.478Z,4.37
2018-06-27T06:26:52.589Z,6.10
2018-06-27T06:29:24.731Z,5.40
2018-06-27T06:31:56.912Z,5.00
2018-06-27T06:34:29.038Z,5.63
2018-06-27T06:37:01.179Z,5.90
2018-06-27T06:39:33.400Z,5.00
2018-06-27T06:42:05.665Z,5.13
2018-06-27T06:44:37.761Z,4.63
2018-06-27T06:47:09.863Z,5.60
2018-06-27T06:49:42.004Z,5.40
2018-06-27T06:52:14.334Z,6.80
2018-06-27T06:54:46.418Z,6.10
2018-06-27T06:57:18.628Z,4.90
2018-06-27T06:59:50.723Z,5.63
2018-06-27T07:02:22.902Z,5.77
2018-06-27T07:04:57.310Z,4.53
2018-06-27T07:07:29.506Z,4.70
2018-06-27T07:10:01.656Z,4.53
2018-06-27T07:12:33.833Z,2.77
2018-06-27T07:15:06.081Z,3.23
2018-06-27T07:17:38.420Z,3.60
2018-06-27T07:20:12.694Z,3.30
2018-06-27T07:22:44.827Z,6.70
2018-06-27T07:25:16.935Z,3.23
2018-06-27T07:27:49.044Z,2.77
2018-06-27T07:30:21.161Z,3.17
2018-06-27T07:32:53.395Z,8.07
2018-06-27T07:35:25.539Z,2.57
2018-06-27T07:37:57.727Z,2.10
2018-06-27T07:40:29.937Z,3.60
2018-06-27T07:43:02.143Z,3.07
2018-06-27T07:45:34.305Z,2.60
2018-06-27T07:48:06.445Z,3.37
2018-06-27T07:50:38.629Z,2.67
2018-06-27T07:53:11.372Z,3.40
2018-06-27T07:55:43.534Z,3.67
2018-06-27T07:58:15.755Z,2.50
2018-06-27T08:00:47.831Z,3.00
2018-06-27T08:03:19.945Z,2.53
2018-06-27T08:05:52.122Z,1.83
2018-06-27T08:08:24.192Z,1.60
2018-06-27T08:10:56.611Z,4.47
2018-06-27T08:13:28.688Z,3.07
2018-06-27T08:16:00.854Z,1.90
2018-06-27T08:18:37.458Z,1.63
2018-06-27T08:21:09.906Z,2.63
2018-06-27T08:23:42.190Z,1.80
2018-06-27T08:26:14.388Z,1.87
2018-06-27T08:28:46.416Z,1.93
2018-06-27T08:31:18.534Z,2.50
2018-06-27T08:33:50.736Z,2.30
2018-06-27T08:36:22.832Z,2.40
2018-06-27T08:38:54.941Z,2.40
2018-06-27T08:41:27.065Z,2.67
2018-06-27T08:43:59.235Z,2.77
2018-06-27T08:46:31.379Z,2.77
2018-06-27T08:49:03.564Z,3.17
2018-06-27T08:51:36.692Z,3.20
2018-06-27T08:54:08.824Z,3.30
2018-06-27T08:56:40.909Z,2.93
2018-06-27T08:59:13.050Z,2.67
2018-06-27T09:01:45.145Z,2.20
2018-06-27T09:04:17.199Z,5.10
2018-06-27T09:06:49.372Z,2.33
2018-06-27T09:09:21.480Z,2.83
2018-06-27T09:11:53.668Z,2.80
2018-06-27T09:14:25.844Z,2.77
2018-06-27T09:16:57.933Z,4.33
2018-06-27T09:19:30.116Z,3.10
2018-06-27T09:22:02.207Z,4.20
2018-06-27T09:24:34.568Z,3.17
2018-06-27T09:27:08.873Z,3.10
2018-06-27T09:29:40.972Z,4.07
2018-06-27T09:32:13.201Z,7.13
2018-06-27T09:34:45.363Z,2.47
2018-06-27T09:37:17.567Z,4.23
2018-06-27T09:39:49.656Z,2.20
2018-06-27T09:42:21.752Z,2.27
2018-06-27T09:44:54.869Z,3.87
2018-06-27T09:47:26.952Z,2.53
2018-06-27T09:49:59.263Z,3.17
2018-06-27T09:52:31.530Z,2.53
2018-06-27T09:55:04.730Z,2.67
2018-06-27T09:57:36.868Z,2.20
2018-06-27T10:00:14.466Z,2.27
2018-06-27T10:02:46.541Z,2.30
2018-06-27T10:05:18.701Z,1.97
2018-06-27T10:07:50.848Z,2.80
2018-06-27T10:10:24.071Z,4.00
2018-06-27T10:12:56.555Z,2.80
2018-06-27T10:15:28.647Z,2.57
2018-06-27T10:18:00.804Z,2.60
2018-06-27T10:20:33.976Z,2.03
2018-06-27T10:23:06.159Z,2.47
2018-06-27T10:25:38.405Z,2.33
2018-06-27T10:28:10.560Z,2.67
2018-06-27T10:30:42.677Z,2.00
2018-06-27T10:33:15.440Z,2.93
2018-06-27T10:35:47.693Z,1.80
2018-06-27T10:38:19.887Z,2.17
2018-06-27T10:40:52.040Z,1.60
2018-06-27T10:43:26.200Z,1.57
2018-06-27T10:45:58.405Z,2.13
2018-06-27T10:48:30.699Z,2.17
2018-06-27T10:51:02.855Z,2.90
2018-06-27T10:53:35.168Z,2.27
2018-06-27T10:56:07.313Z,4.00
2018-06-27T10:58:39.480Z,2.80
2018-06-27T11:01:15.669Z,2.50
2018-06-27T11:03:48.259Z,2.53
2018-06-27T11:06:20.433Z,2.50
2018-06-27T11:08:52.867Z,2.07
2018-06-27T11:11:24.993Z,2.80
2018-06-27T11:13:58.234Z,2.07
2018-06-27T11:16:30.510Z,2.40
2018-06-27T11:19:02.560Z,1.63
2018-06-27T11:21:34.963Z,1.33
2018-06-27T11:24:07.248Z,2.03
2018-06-27T11:26:39.335Z,1.50
2018-06-27T11:29:11.451Z,1.67
2018-06-27T11:31:47.237Z,1.70
2018-06-27T11:34:20.242Z,1.23
2018-06-27T11:36:52.343Z,1.83
2018-06-27T11:39:24.820Z,2.47
2018-06-27T11:41:57.240Z,1.30
2018-06-27T11:44:29.397Z,1.80
2018-06-27T11:47:01.477Z,1.67
2018-06-27T11:49:33.564Z,1.20
2018-06-27T11:52:05.831Z,3.80
2018-06-27T11:54:37.957Z,3.87
2018-06-27T11:57:10.460Z,2.03
2018-06-27T11:59:42.940Z,3.20
2018-06-27T12:02:17.490Z,1.83
2018-06-27T12:04:49.725Z,2.50
2018-06-27T12:07:22.111Z,1.97
2018-06-27T12:09:54.264Z,2.70
2018-06-27T12:12:26.458Z,2.37
2018-06-27T12:14:58.769Z,2.30
2018-06-27T12:17:31.019Z,1.73
2018-06-27T12:20:03.548Z,1.30
2018-06-27T12:22:35.699Z,1.50
2018-06-27T12:25:08.763Z,1.47
2018-06-27T12:27:41.311Z,2.10
2018-06-27T12:30:21.264Z,1.60
2018-06-27T12:33:00.278Z,1.50
2018-06-27T12:35:32.452Z,1.43
2018-06-27T12:38:04.935Z,4.30
2018-06-27T12:40:37.097Z,4.27
2018-06-27T12:43:09.336Z,1.50
2018-06-27T12:45:41.445Z,1.30
2018-06-27T12:48:13.665Z,1.60
2018-06-27T12:50:45.797Z,3.00
2018-06-27T12:53:17.935Z,1.53
2018-06-27T12:55:50.056Z,1.50
2018-06-27T12:58:22.279Z,1.50
2018-06-27T13:00:54.497Z,2.03
2018-06-27T13:03:26.784Z,1.70
2018-06-27T13:05:59.989Z,3.90
2018-06-27T13:08:32.359Z,1.50
2018-06-27T13:11:04.822Z,2.47
2018-06-27T13:13:37.000Z,1.40
2018-06-27T13:16:09.181Z,1.70
2018-06-27T13:18:41.417Z,1.60
2018-06-27T13:21:13.589Z,2.60
2018-06-27T13:23:45.716Z,1.80
2018-06-27T13:26:17.876Z,2.13
2018-06-27T13:28:50.246Z,6.13
2018-06-27T13:31:22.369Z,1.57
2018-06-27T13:33:54.534Z,1.50
2018-06-27T13:36:26.688Z,2.63
2018-06-27T13:38:58.870Z,2.20
2018-06-27T13:41:32.216Z,2.60
2018-06-27T13:44:04.656Z,4.50
2018-06-27T13:46:36.729Z,3.63
2018-06-27T13:49:08.922Z,3.87
2018-06-27T13:51:41.129Z,2.00
2018-06-27T13:54:13.328Z,2.53
2018-06-27T13:56:46.583Z,2.73
2018-06-27T13:59:19.204Z,2.30
2018-06-27T14:01:52.628Z,2.30
2018-06-27T14:04:24.876Z,1.93
2018-06-27T14:06:56.986Z,1.73
2018-06-27T14:09:30.122Z,1.80
2018-06-27T14:12:03.436Z,1.77
2018-06-27T14:14:38.866Z,2.03
2018-06-27T14:17:11.087Z,1.87
2018-06-27T14:19:43.210Z,1.87
2018-06-27T14:22:16.312Z,1.70
2018-06-27T14:24:48.581Z,1.63
2018-06-27T14:27:20.767Z,1.43
2018-06-27T14:29:52.933Z,3.50
2018-06-27T14:32:25.116Z,1.60
2018-06-27T14:34:57.225Z,1.97
2018-06-27T14:37:29.386Z,4.43
2018-06-27T14:40:01.536Z,1.60
2018-06-27T14:42:33.690Z,1.87
2018-06-27T14:45:06.218Z,1.80
2018-06-27T14:47:38.408Z,2.43
2018-06-27T14:50:10.511Z,2.10
2018-06-27T14:52:42.580Z,2.50
2018-06-27T14:55:14.737Z,2.00
2018-06-27T14:57:46.862Z,2.10
2018-06-27T15:00:19.045Z,2.43
2018-06-27T15:02:51.148Z,2.30
2018-06-27T15:05:23.346Z,2.00
2018-06-27T15:07:55.453Z,2.00
2018-06-27T15:10:27.769Z,2.10
2018-06-27T15:12:59.877Z,3.40
2018-06-27T15:15:32.000Z,2.60
2018-06-27T15:18:04.427Z,2.50
2018-06-27T15:20:36.588Z,4.37
2018-06-27T15:23:08.697Z,1.90
2018-06-27T15:25:40.796Z,2.37
2018-06-27T15:28:12.924Z,2.70
2018-06-27T15:30:45.082Z,3.50
2018-06-27T15:33:17.308Z,2.13
2018-06-27T15:35:49.783Z,1.80
2018-06-27T15:38:21.891Z,2.00
2018-06-27T15:40:54.020Z,1.90
2018-06-27T15:43:26.128Z,2.30
2018-06-27T15:45:58.586Z,2.13
2018-06-27T15:48:30.793Z,3.00
2018-06-27T15:51:03.006Z,2.70
2018-06-27T15:53:35.076Z,2.40
2018-06-27T15:56:08.351Z,2.40
2018-06-27T15:58:40.718Z,1.90
2018-06-27T16:01:12.872Z,1.93
2018-06-27T16:03:45.008Z,2.20
2018-06-27T16:06:17.195Z,2.10
2018-06-27T16:08:49.359Z,4.07
2018-06-27T16:11:21.661Z,2.07
2018-06-27T16:13:54.032Z,1.93
2018-06-27T16:16:26.140Z,2.40
2018-06-27T16:18:58.336Z,2.20
2018-06-27T16:21:30.664Z,1.83
2018-06-27T16:24:03.010Z,1.70
2018-06-27T16:26:37.231Z,1.67
2018-06-27T16:29:09.433Z,2.10
2018-06-27T16:31:41.618Z,2.37
2018-06-27T16:34:16.546Z,1.67
2018-06-27T16:36:48.741Z,2.10
2018-06-27T16:39:20.865Z,4.00
2018-06-27T16:41:53.058Z,3.00
2018-06-27T16:44:25.238Z,2.17
2018-06-27T16:46:57.529Z,2.13
2018-06-27T16:49:29.780Z,2.30
2018-06-27T16:52:03.289Z,1.80
2018-06-27T16:54:35.518Z,5.53
2018-06-27T16:57:07.876Z,3.00
2018-06-27T16:59:40.283Z,3.10
2018-06-27T17:02:12.587Z,2.47
2018-06-27T17:04:44.899Z,1.80
2018-06-27T17:07:17.185Z,1.90
2018-06-27T17:09:50.254Z,1.90
2018-06-27T17:12:22.653Z,2.20
2018-06-27T17:14:54.916Z,2.30
2018-06-27T17:17:27.220Z,2.10
2018-06-27T17:19:59.451Z,12.20
2018-06-27T17:22:31.849Z,2.30
2018-06-27T17:25:04.193Z,1.93
2018-06-27T17:27:36.366Z,2.60
2018-06-27T17:30:09.472Z,2.23
2018-06-27T17:32:42.192Z,3.57
2018-06-27T17:35:14.924Z,2.50
2018-06-27T17:37:47.441Z,2.60
2018-06-27T17:40:23.025Z,2.53
2018-06-27T17:42:55.284Z,5.83
2018-06-27T17:45:27.604Z,2.43
2018-06-27T17:48:00.385Z,2.40
2018-06-27T17:50:32.634Z,2.60
2018-06-27T17:53:04.979Z,5.10
2018-06-27T17:55:37.309Z,2.30
2018-06-27T17:58:09.648Z,4.73
2018-06-27T18:00:42.110Z,2.63
2018-06-27T18:03:14.293Z,4.53
2018-06-27T18:05:47.045Z,2.33
2018-06-27T18:08:19.382Z,2.43
2018-06-27T18:10:51.674Z,3.10
2018-06-27T18:13:23.899Z,3.17
2018-06-27T18:15:56.745Z,2.60
2018-06-27T18:18:29.004Z,2.50
2018-06-27T18:21:01.345Z,2.57
2018-06-27T18:23:33.597Z,2.90
2018-06-27T18:26:05.865Z,2.60
2018-06-27T18:28:38.024Z,2.70
2018-06-27T18:31:10.287Z,2.27
2018-06-27T18:33:42.500Z,2.87
2018-06-27T18:36:14.661Z,2.47
2018-06-27T18:38:46.965Z,3.03
2018-06-27T18:41:19.133Z,3.30
2018-06-27T18:43:51.220Z,3.23
2018-06-27T18:46:23.364Z,2.90
2018-06-27T18:48:55.525Z,2.60
2018-06-27T18:51:27.709Z,2.77
2018-06-27T18:53:59.851Z,2.00
2018-06-27T18:56:32.048Z,3.10
2018-06-27T18:59:04.182Z,2.57
2018-06-27T19:01:36.293Z,2.90
2018-06-27T19:04:08.433Z,2.50
2018-06-27T19:06:40.535Z,2.40
2018-06-27T19:09:12.801Z,4.53
2018-06-27T19:11:44.951Z,2.90
2018-06-27T19:14:17.089Z,2.53
2018-06-27T19:16:49.193Z,3.43
2018-06-27T19:19:21.450Z,4.17
2018-06-27T19:21:53.763Z,3.10
2018-06-27T19:24:26.101Z,2.53
2018-06-27T19:26:58.442Z,2.57
2018-06-27T19:29:31.950Z,3.10
2018-06-27T19:32:04.318Z,3.60
2018-06-27T19:34:36.476Z,3.50
2018-06-27T19:37:08.801Z,3.00
2018-06-27T19:39:41.194Z,3.27
2018-06-27T19:42:13.364Z,3.40
2018-06-27T19:44:45.655Z,2.87
2018-06-27T19:47:17.934Z,3.60
2018-06-27T19:49:57.615Z,3.40
2018-06-27T19:52:31.951Z,3.20
2018-06-27T19:55:10.963Z,4.97
2018-06-27T19:57:44.047Z,3.00
2018-06-27T20:00:16.409Z,3.40
2018-06-27T20:02:50.822Z,4.43
2018-06-27T20:05:23.101Z,3.30
2018-06-27T20:07:55.537Z,3.30
2018-06-27T20:10:27.540Z,3.70
2018-06-27T20:12:59.685Z,3.57
2018-06-27T20:15:31.989Z,2.90
2018-06-27T20:18:04.468Z,4.07
2018-06-27T20:20:36.944Z,2.80
2018-06-27T20:23:09.954Z,3.50
2018-06-27T20:25:42.242Z,3.93
2018-06-27T20:28:14.960Z,3.93
2018-06-27T20:30:49.501Z,3.70
2018-06-27T20:33:21.858Z,3.03
2018-06-27T20:35:54.057Z,3.30
2018-06-27T20:38:26.462Z,3.47
2018-06-27T20:40:58.660Z,3.30
2018-06-27T20:43:32.514Z,2.90
2018-06-27T20:46:08.534Z,3.33
2018-06-27T20:48:41.794Z,3.20
2018-06-27T20:51:16.056Z,3.23
2018-06-27T20:53:48.284Z,3.33
2018-06-27T20:56:20.809Z,3.37
2018-06-27T20:58:53.170Z,3.03
2018-06-27T21:01:25.628Z,3.70
2018-06-27T21:03:58.204Z,2.60
2018-06-27T21:06:30.560Z,2.87
2018-06-27T21:09:05.061Z,3.30
2018-06-27T21:11:37.627Z,3.27
2018-06-27T21:14:09.717Z,3.40
2018-06-27T21:16:42.152Z,3.63
2018-06-27T21:19:14.497Z,4.70
2018-06-27T21:21:47.804Z,3.00
2018-06-27T21:24:20.099Z,2.70
2018-06-27T21:26:52.285Z,3.50
2018-06-27T21:29:24.963Z,3.20
2018-06-27T21:31:57.292Z,2.80
2018-06-27T21:34:30.277Z,3.50
2018-06-27T21:37:04.136Z,3.37
2018-06-27T21:39:36.469Z,3.63
2018-06-27T21:42:29.338Z,4.17
2018-06-27T21:45:01.588Z,4.50
2018-06-27T21:47:34.524Z,3.43
2018-06-27T21:53:02.656Z,3.20
2018-06-27T21:55:34.827Z,3.40
2018-06-27T21:58:06.989Z,4.43
2018-06-27T22:00:39.258Z,7.40
2018-06-27T22:03:11.393Z,3.73
2018-06-27T22:05:43.498Z,4.13
2018-06-27T22:08:15.600Z,4.37
2018-06-27T22:10:47.698Z,3.70
2018-06-27T22:13:19.787Z,3.70
2018-06-27T22:15:51.869Z,4.20
2018-06-27T22:18:23.956Z,4.23
2018-06-27T22:20:56.037Z,5.70
2018-06-27T22:23:28.156Z,4.30
2018-06-27T22:26:00.224Z,4.03
2018-06-27T22:28:32.410Z,3.50
2018-06-27T22:31:04.579Z,3.57
2018-06-27T22:33:36.731Z,3.57
2018-06-27T22:36:08.822Z,3.30
2018-06-27T22:38:40.955Z,3.80
2018-06-27T22:41:13.076Z,3.70
2018-06-27T22:43:45.161Z,3.83
2018-06-27T22:46:17.340Z,4.03
2018-06-27T22:48:49.929Z,6.17
2018-06-27T22:51:22.095Z,4.77
2018-06-27T22:53:54.367Z,3.80
2018-06-27T22:56:26.665Z,4.30
2018-06-27T22:58:58.825Z,4.53
2018-06-27T23:01:30.999Z,3.63
2018-06-27T23:04:03.418Z,4.70
2018-06-27T23:06:35.605Z,4.43
2018-06-27T23:09:09.069Z,4.17
2018-06-27T23:11:41.229Z,6.93
2018-06-27T23:14:13.543Z,5.90
2018-06-27T23:16:45.727Z,4.67
2018-06-27T23:19:18.112Z,4.50
2018-06-27T23:21:50.248Z,4.03
2018-06-27T23:24:22.345Z,4.40
2018-06-27T23:26:54.755Z,3.90
2018-06-27T23:29:26.928Z,4.40
2018-06-27T23:31:59.605Z,4.77
2018-06-27T23:34:31.749Z,4.07
2018-06-27T23:37:04.081Z,4.50
2018-06-27T23:39:36.254Z,4.30
2018-06-27T23:42:08.506Z,4.00
2018-06-27T23:44:40.746Z,4.20
2018-06-27T23:47:12.969Z,3.70
2018-06-27T23:49:45.959Z,3.83
2018-06-27T23:52:18.159Z,3.57
2018-06-27T23:54:50.290Z,4.60
2018-06-27T23:57:22.463Z,3.77
2018-06-27T23:59:54.643Z,3.90
